Time;durP1;ratioP1;P1;durP2;ratioP2;P2;SDS_P1;SDS_P2;PMS_P1;PMS_P2;Temp;Humidity;BMP_temperature;BMP_pressure;BME280_temperature;BME280_humidity;BME280_pressure;Samples;Min_cycle;Max_cycle;Signal;HPM_P1;HPM_P2
2021/01/23 00:02:06;;;;;;;23.20;14.40;;;2.60;99.90;;;;;;5034270;28;20240;-80
2021/01/23 00:04:32;;;;;;;20.80;14.50;;;2.60;99.90;;;;;;5033969;28;20100;-80
2021/01/23 00:06:59;;;;;;;24.52;15.15;;;2.60;99.90;;;;;;5033602;28;20073;-80
2021/01/23 00:09:26;;;;;;;23.33;14.10;;;2.70;99.90;;;;;;5034109;28;20529;-80
2021/01/23 00:11:52;;;;;;;24.05;14.25;;;2.70;99.90;;;;;;5036782;28;20128;-81
2021/01/23 00:14:19;;;;;;;27.23;14.82;;;2.70;99.90;;;;;;5039126;28;20124;-81
2021/01/23 00:16:45;;;;;;;21.92;14.52;;;2.70;99.90;;;;;;5037565;28;20048;-80
2021/01/23 00:19:12;;;;;;;21.75;14.95;;;2.70;99.90;;;;;;5039115;28;20077;-80
2021/01/23 00:21:38;;;;;;;21.02;14.13;;;2.70;99.90;;;;;;5039837;28;20520;-80
2021/01/23 00:24:05;;;;;;;25.02;14.75;;;2.70;99.90;;;;;;5040001;28;20080;-80
2021/01/23 00:26:32;;;;;;;24.65;14.75;;;2.60;99.90;;;;;;5039128;28;20132;-79
2021/01/23 00:28:59;;;;;;;26.02;14.90;;;2.60;99.90;;;;;;5039040;28;20091;-82
2021/01/23 00:31:25;;;;;;;22.08;14.18;;;2.50;99.90;;;;;;5039099;28;20085;-81
2021/01/23 00:33:51;;;;;;;24.08;14.45;;;2.50;99.90;;;;;;5038770;28;20135;-82
2021/01/23 00:36:18;;;;;;;23.88;14.40;;;2.60;99.90;;;;;;5038331;28;20512;-81
2021/01/23 00:38:44;;;;;;;26.00;13.95;;;2.50;99.90;;;;;;5039152;28;20153;-81
2021/01/23 00:41:11;;;;;;;25.70;14.43;;;2.50;99.90;;;;;;5039753;28;20443;-82
2021/01/23 00:43:38;;;;;;;20.38;14.00;;;2.50;99.90;;;;;;5039892;28;20116;-82
2021/01/23 00:46:05;;;;;;;27.15;15.63;;;2.50;99.90;;;;;;5040458;28;20092;-82
2021/01/23 00:48:31;;;;;;;24.67;15.55;;;2.60;99.90;;;;;;5039334;28;20179;-81
2021/01/23 00:50:58;;;;;;;21.55;14.38;;;2.60;99.90;;;;;;5037499;28;20148;-80
2021/01/23 00:53:24;;;;;;;19.45;13.40;;;2.60;99.90;;;;;;5038349;28;20128;-80
2021/01/23 00:55:51;;;;;;;24.40;13.68;;;2.60;99.90;;;;;;5037203;28;20139;-80
2021/01/23 00:58:17;;;;;;;22.92;13.65;;;2.60;99.90;;;;;;5037703;28;20053;-79
2021/01/23 01:00:44;;;;;;;22.02;13.73;;;2.60;99.90;;;;;;5037624;28;20132;-80
2021/01/23 01:03:13;;;;;;;21.20;13.50;;;2.60;99.90;;;;;;5039501;28;20567;-78
2021/01/23 01:05:40;;;;;;;23.48;14.30;;;2.60;99.90;;;;;;5040627;28;20120;-78
2021/01/23 01:08:06;;;;;;;21.92;13.60;;;2.50;99.90;;;;;;5040344;28;20057;-79
2021/01/23 01:10:33;;;;;;;25.35;14.35;;;2.50;99.90;;;;;;5033568;28;20045;-77
2021/01/23 01:12:59;;;;;;;20.95;14.00;;;2.50;99.90;;;;;;5038026;28;20055;-78
2021/01/23 01:15:26;;;;;;;21.25;13.15;;;2.50;99.90;;;;;;5027937;28;20120;-77
2021/01/23 01:17:53;;;;;;;23.40;14.07;;;2.50;99.90;;;;;;5026430;28;20465;-77
2021/01/23 01:20:19;;;;;;;23.63;14.13;;;2.50;99.90;;;;;;5030317;28;20081;-79
2021/01/23 01:22:46;;;;;;;19.52;12.82;;;2.40;99.90;;;;;;5042817;28;20049;-78
2021/01/23 01:25:12;;;;;;;20.00;13.10;;;2.30;99.90;;;;;;5044522;28;20050;-78
2021/01/23 01:27:39;;;;;;;19.55;12.55;;;2.40;99.90;;;;;;5046183;28;20056;-78
2021/01/23 01:30:06;;;;;;;21.98;13.27;;;2.40;99.90;;;;;;5046553;28;20049;-78
2021/01/23 01:32:33;;;;;;;19.38;13.50;;;2.40;99.90;;;;;;5047405;28;20119;-77
2021/01/23 01:35:00;;;;;;;18.45;12.60;;;2.40;99.90;;;;;;5036908;28;20049;-79
2021/01/23 01:37:26;;;;;;;20.52;12.75;;;2.40;99.90;;;;;;5038520;28;20053;-79
2021/01/23 01:39:53;;;;;;;21.48;13.23;;;2.40;99.90;;;;;;5037764;28;20041;-79
2021/01/23 01:42:19;;;;;;;20.48;12.60;;;2.40;99.90;;;;;;5040176;28;20080;-80
2021/01/23 01:44:45;;;;;;;19.02;13.10;;;2.40;99.90;;;;;;5040584;28;20088;-80
2021/01/23 01:47:12;;;;;;;21.98;12.98;;;2.40;99.90;;;;;;5040258;28;20056;-80
2021/01/23 01:49:39;;;;;;;24.50;14.95;;;2.30;99.90;;;;;;5028509;28;20095;-79
2021/01/23 01:52:06;;;;;;;20.70;13.13;;;2.30;99.90;;;;;;5035975;28;20057;-80
2021/01/23 01:54:33;;;;;;;20.98;13.82;;;2.30;99.90;;;;;;5039637;28;20506;-80
2021/01/23 01:56:59;;;;;;;21.23;13.55;;;2.20;99.90;;;;;;5037916;28;20119;-80
2021/01/23 01:59:25;;;;;;;24.90;13.55;;;2.20;99.90;;;;;;5040307;28;20084;-79
2021/01/23 02:02:03;;;;;;;23.08;13.70;;;2.20;99.90;;;;;;5037973;28;20137;-79
2021/01/23 02:04:37;;;;;;;20.60;13.10;;;2.20;99.90;;;;;;5038769;28;20478;-79
2021/01/23 02:07:14;;;;;;;19.60;12.75;;;2.20;99.90;;;;;;5036991;28;20060;-80
2021/01/23 02:10:00;;;;;;;20.30;12.77;;;2.20;99.90;;;;;;5037413;28;20072;-79
2021/01/23 02:12:33;;;;;;;19.40;12.45;;;2.20;99.90;;;;;;5028188;28;20088;-79
2021/01/23 02:15:04;;;;;;;21.23;12.25;;;2.20;99.90;;;;;;5042297;28;20069;-78
2021/01/23 02:17:37;;;;;;;19.88;12.13;;;2.10;99.90;;;;;;5037978;28;20072;-79
2021/01/23 02:20:13;;;;;;;26.02;11.48;;;2.10;99.90;;;;;;5040525;28;20084;-79
2021/01/23 02:23:13;;;;;;;20.38;12.43;;;2.20;99.90;;;;;;5040711;28;20111;-78
2021/01/23 02:26:04;;;;;;;19.52;11.20;;;2.20;99.90;;;;;;5043084;28;20047;-78
2021/01/23 02:28:50;;;;;;;18.90;11.27;;;2.30;99.90;;;;;;5028525;28;20042;-79
2021/01/23 02:31:19;;;;;;;20.13;11.63;;;2.20;99.90;;;;;;5035467;28;20118;-79
2021/01/23 02:33:49;;;;;;;18.77;11.75;;;2.20;99.90;;;;;;5045411;22;20153;-79
2021/01/23 02:36:17;;;;;;;16.63;10.98;;;2.20;99.90;;;;;;5029558;28;20049;-77
2021/01/23 02:38:45;;;;;;;18.77;12.15;;;2.20;99.90;;;;;;5031488;28;20110;-78
2021/01/23 02:41:11;;;;;;;18.73;11.57;;;2.20;99.90;;;;;;5032838;28;20519;-76
2021/01/23 02:43:42;;;;;;;19.73;10.85;;;2.20;99.90;;;;;;5032696;28;20462;-78
2021/01/23 02:46:09;;;;;;;18.75;11.52;;;2.20;99.90;;;;;;5037754;28;20054;-78
2021/01/23 02:48:37;;;;;;;18.98;11.55;;;2.30;99.90;;;;;;5047496;28;20085;-79
2021/01/23 02:51:06;;;;;;;23.83;11.52;;;2.20;99.90;;;;;;5046383;28;20104;-80
2021/01/23 02:53:35;;;;;;;17.70;10.98;;;2.20;99.90;;;;;;5046004;28;20599;-81
2021/01/23 02:56:08;;;;;;;17.33;10.70;;;2.20;99.90;;;;;;5034801;28;20132;-79
2021/01/23 02:58:35;;;;;;;18.40;11.13;;;2.20;99.90;;;;;;5033502;28;20098;-80
2021/01/23 03:01:04;;;;;;;16.77;10.90;;;2.20;99.90;;;;;;5033889;28;20136;-80
2021/01/23 03:03:32;;;;;;;19.13;11.27;;;2.20;99.90;;;;;;5034448;28;20053;-80
2021/01/23 03:06:03;;;;;;;20.00;10.23;;;2.20;99.90;;;;;;5026719;28;20075;-78
2021/01/23 03:08:30;;;;;;;17.77;11.02;;;2.10;99.90;;;;;;5013929;28;20053;-77
2021/01/23 03:10:57;;;;;;;17.83;11.35;;;2.10;99.90;;;;;;5012242;28;20136;-77
2021/01/23 03:13:24;;;;;;;18.45;10.13;;;2.00;99.90;;;;;;5013028;28;20141;-77
2021/01/23 03:15:51;;;;;;;16.00;11.35;;;2.00;99.90;;;;;;5012144;28;20115;-77
2021/01/23 03:18:17;;;;;;;15.85;11.05;;;2.00;99.90;;;;;;5011026;28;20128;-77
2021/01/23 03:20:44;;;;;;;17.77;11.10;;;1.90;99.90;;;;;;5012017;28;20085;-77
2021/01/23 03:23:11;;;;;;;17.60;11.30;;;1.90;99.90;;;;;;5011862;28;20570;-76
2021/01/23 03:25:37;;;;;;;20.73;11.38;;;1.80;99.90;;;;;;5011928;28;20430;-77
2021/01/23 03:28:04;;;;;;;17.60;11.77;;;1.80;99.90;;;;;;5012098;28;20137;-78
2021/01/23 03:30:31;;;;;;;21.08;12.30;;;1.80;99.90;;;;;;5012226;28;20126;-76
2021/01/23 03:32:58;;;;;;;17.25;10.98;;;1.80;99.90;;;;;;5011659;28;20050;-77
2021/01/23 03:35:25;;;;;;;16.83;12.02;;;1.80;99.90;;;;;;5011820;28;20050;-78
2021/01/23 03:37:52;;;;;;;19.25;11.30;;;1.70;99.90;;;;;;5011923;28;20136;-77
2021/01/23 03:40:20;;;;;;;19.00;11.73;;;1.80;99.90;;;;;;5012145;28;20137;-77
2021/01/23 03:42:46;;;;;;;15.75;11.07;;;1.80;99.90;;;;;;5011518;28;20136;-76
2021/01/23 03:45:13;;;;;;;19.35;11.48;;;1.80;99.90;;;;;;5012004;28;20132;-78
2021/01/23 03:47:39;;;;;;;26.35;11.38;;;1.80;99.90;;;;;;5015674;28;20141;-78
2021/01/23 03:50:08;;;;;;;17.60;11.43;;;1.80;99.90;;;;;;5016142;28;20484;-78
2021/01/23 03:52:34;;;;;;;20.00;12.10;;;1.80;99.90;;;;;;5017011;28;20133;-77
2021/01/23 03:55:01;;;;;;;17.05;11.27;;;1.80;99.90;;;;;;5016214;28;20590;-78
2021/01/23 03:57:28;;;;;;;21.00;11.32;;;1.80;99.90;;;;;;5016419;28;20554;-76
2021/01/23 03:59:55;;;;;;;20.27;12.38;;;1.90;99.90;;;;;;5019222;28;20088;-78
2021/01/23 04:02:21;;;;;;;18.88;10.93;;;1.80;99.90;;;;;;5018981;28;20125;-78
2021/01/23 04:04:47;;;;;;;20.85;11.63;;;1.90;99.90;;;;;;5017323;28;20128;-77
2021/01/23 04:07:14;;;;;;;19.88;11.70;;;1.90;99.90;;;;;;5016992;28;20085;-78
2021/01/23 04:09:40;;;;;;;17.92;11.00;;;1.90;99.90;;;;;;5017234;28;20136;-77
2021/01/23 04:12:07;;;;;;;18.85;11.10;;;1.90;99.90;;;;;;5017488;28;20142;-79
2021/01/23 04:14:34;;;;;;;21.40;10.93;;;1.90;99.90;;;;;;5017168;28;20199;-79
2021/01/23 04:17:01;;;;;;;17.15;10.93;;;1.90;99.90;;;;;;5016242;28;20125;-79
2021/01/23 04:19:27;;;;;;;18.98;11.43;;;1.90;99.90;;;;;;5017179;28;20129;-78
2021/01/23 04:21:54;;;;;;;18.05;11.38;;;1.90;99.90;;;;;;5016549;28;20132;-78
2021/01/23 04:24:20;;;;;;;18.58;11.40;;;1.90;99.90;;;;;;5016755;28;20077;-79
2021/01/23 04:26:46;;;;;;;17.20;11.32;;;1.90;99.90;;;;;;5016433;28;20065;-78
2021/01/23 04:29:13;;;;;;;19.90;11.30;;;1.90;99.90;;;;;;5017250;28;20090;-79
2021/01/23 04:31:40;;;;;;;17.67;11.30;;;1.90;99.90;;;;;;5020067;28;20085;-79
2021/01/23 04:34:06;;;;;;;19.30;11.82;;;2.00;99.90;;;;;;5018923;28;20105;-78
2021/01/23 04:36:33;;;;;;;20.80;12.00;;;2.00;99.90;;;;;;5018583;28;20125;-80
2021/01/23 04:38:59;;;;;;;21.20;12.13;;;2.00;99.90;;;;;;5018146;28;20149;-78
2021/01/23 04:41:29;;;;;;;17.02;12.07;;;2.00;99.90;;;;;;5018679;28;20149;-80
2021/01/23 04:43:56;;;;;;;22.63;13.50;;;2.00;99.90;;;;;;5016603;28;20501;-78
2021/01/23 04:46:23;;;;;;;22.38;12.98;;;2.10;99.90;;;;;;5015580;28;20050;-78
2021/01/23 04:48:51;;;;;;;24.15;14.07;;;2.10;99.90;;;;;;5015747;28;20136;-79
2021/01/23 04:51:17;;;;;;;20.67;12.85;;;2.10;99.90;;;;;;5015444;28;20136;-79
2021/01/23 04:53:46;;;;;;;22.83;12.25;;;2.20;99.90;;;;;;5015814;28;20081;-79
2021/01/23 04:56:12;;;;;;;22.10;12.82;;;2.30;99.90;;;;;;5014696;28;20049;-79
2021/01/23 04:58:39;;;;;;;16.27;10.98;;;2.30;99.90;;;;;;5013972;28;20185;-77
2021/01/23 05:01:05;;;;;;;19.95;11.40;;;2.40;99.90;;;;;;5014239;28;20137;-77
2021/01/23 05:03:50;;;;;;;20.20;11.00;;;2.40;99.90;;;;;;5014429;28;20490;-77
2021/01/23 05:06:17;;;;;;;19.55;10.98;;;2.50;99.90;;;;;;5013358;28;20502;-77
2021/01/23 05:08:44;;;;;;;15.70;10.60;;;2.50;99.90;;;;;;5014144;28;20093;-77
2021/01/23 05:11:10;;;;;;;20.45;11.77;;;2.60;99.90;;;;;;5014108;28;20128;-77
2021/01/23 05:13:36;;;;;;;16.98;10.95;;;2.50;99.90;;;;;;5014371;28;20132;-78
2021/01/23 05:16:03;;;;;;;16.10;10.63;;;2.60;99.90;;;;;;5015973;28;20081;-77
2021/01/23 05:18:30;;;;;;;15.55;9.90;;;2.60;99.90;;;;;;5015814;28;20137;-78
2021/01/23 05:20:56;;;;;;;18.77;11.27;;;2.70;99.90;;;;;;5018082;28;20104;-80
2021/01/23 05:23:25;;;;;;;20.45;11.77;;;2.70;99.90;;;;;;5018893;28;20482;-80
2021/01/23 05:26:43;;;;;;;19.85;11.35;;;2.80;99.90;;;;;;5018668;28;20082;-79
2021/01/23 05:29:16;;;;;;;19.77;11.25;;;2.80;99.90;;;;;;5017049;28;20069;-78
2021/01/23 05:31:48;;;;;;;16.40;10.25;;;2.90;99.90;;;;;;5016449;28;20601;-79
2021/01/23 05:34:28;;;;;;;17.13;10.02;;;2.90;99.90;;;;;;5016016;28;20084;-80
2021/01/23 05:36:55;;;;;;;19.40;11.30;;;2.90;99.90;;;;;;5013163;28;20173;-79
2021/01/23 05:39:42;;;;;;;19.05;10.23;;;2.90;99.90;;;;;;5014852;28;20141;-79
2021/01/23 05:42:09;;;;;;;19.13;10.85;;;2.90;99.90;;;;;;5014201;28;20558;-80
2021/01/23 05:44:35;;;;;;;18.88;11.15;;;3.00;99.90;;;;;;5016160;28;20498;-80
2021/01/23 05:47:22;;;;;;;16.77;10.07;;;2.90;99.90;;;;;;5016543;28;20081;-80
2021/01/23 05:49:50;;;;;;;19.52;11.23;;;2.90;99.90;;;;;;5015900;28;20110;-80
2021/01/23 05:52:17;;;;;;;18.45;11.70;;;2.90;99.90;;;;;;5016534;28;20053;-80
2021/01/23 05:54:45;;;;;;;16.27;10.38;;;3.00;99.90;;;;;;5015117;28;20080;-79
2021/01/23 05:57:12;;;;;;;19.58;10.25;;;3.00;99.90;;;;;;5016366;28;20268;-80
2021/01/23 05:59:41;;;;;;;18.33;10.73;;;2.90;99.90;;;;;;5017133;28;20054;-81
2021/01/23 06:02:10;;;;;;;16.85;10.02;;;2.90;99.90;;;;;;5017030;28;20577;-81
2021/01/23 06:04:41;;;;;;;19.42;11.15;;;2.80;99.90;;;;;;5017289;28;20158;-80
2021/01/23 06:07:08;;;;;;;19.40;10.55;;;2.80;99.90;;;;;;5017534;28;20100;-80
2021/01/23 06:09:38;;;;;;;19.20;10.57;;;2.80;99.90;;;;;;5014201;28;20062;-82
2021/01/23 06:12:39;;;;;;;19.58;11.77;;;2.80;99.90;;;;;;5020056;28;20062;-81
2021/01/23 06:15:33;;;;;;;21.15;11.07;;;2.80;99.90;;;;;;5034172;28;20475;-81
2021/01/23 06:18:01;;;;;;;18.38;11.00;;;2.80;99.90;;;;;;5038043;28;20124;-79
2021/01/23 06:20:50;;;;;;;17.67;10.45;;;2.80;99.90;;;;;;5036137;28;20088;-81
2021/01/23 06:23:20;;;;;;;18.52;10.75;;;2.80;99.90;;;;;;5036984;28;20077;-79
2021/01/23 06:26:01;;;;;;;16.83;10.32;;;2.80;99.90;;;;;;5035442;28;20064;-79
2021/01/23 06:28:50;;;;;;;19.33;11.50;;;2.80;99.90;;;;;;5036195;28;20060;-79
2021/01/23 06:31:33;;;;;;;18.30;10.75;;;2.90;99.90;;;;;;5036222;28;20420;-79
2021/01/23 06:34:15;;;;;;;17.25;10.57;;;2.90;99.90;;;;;;5034130;28;20132;-79
2021/01/23 06:36:41;;;;;;;17.48;10.95;;;2.90;99.90;;;;;;5020218;28;20099;-82
2021/01/23 06:39:09;;;;;;;19.33;11.63;;;2.80;99.90;;;;;;5039005;28;20088;-81
2021/01/23 06:41:37;;;;;;;18.50;11.63;;;2.80;99.90;;;;;;5038369;28;20436;-81
2021/01/23 06:44:16;;;;;;;18.20;11.60;;;2.80;99.90;;;;;;5034917;28;20141;-79
2021/01/23 06:46:44;;;;;;;20.40;11.77;;;2.80;99.90;;;;;;5033758;28;20505;-80
2021/01/23 06:49:14;;;;;;;18.23;11.32;;;2.90;99.90;;;;;;5033423;28;20092;-80
2021/01/23 06:51:41;;;;;;;18.75;11.30;;;2.90;99.90;;;;;;5035222;28;20049;-82
2021/01/23 06:54:12;;;;;;;18.27;11.48;;;2.90;99.90;;;;;;5037285;28;20075;-80
2021/01/23 06:56:38;;;;;;;17.90;11.15;;;2.90;99.90;;;;;;5034311;28;20088;-80
2021/01/23 06:59:06;;;;;;;18.88;12.43;;;2.90;99.90;;;;;;5034484;28;20084;-81
2021/01/23 07:01:33;;;;;;;19.75;11.60;;;2.90;99.90;;;;;;5036858;28;20080;-80
2021/01/23 07:04:05;;;;;;;21.80;11.95;;;2.90;99.90;;;;;;5037653;28;20092;-82
2021/01/23 07:06:31;;;;;;;19.98;12.10;;;2.80;99.90;;;;;;5037870;28;20073;-80
2021/01/23 07:08:58;;;;;;;20.40;12.75;;;2.80;99.90;;;;;;5037968;28;20045;-80
2021/01/23 07:11:24;;;;;;;19.92;12.50;;;2.80;99.90;;;;;;5039397;28;20126;-79
2021/01/23 07:14:05;;;;;;;22.67;12.45;;;2.80;99.90;;;;;;5037860;28;20072;-81
2021/01/23 07:16:34;;;;;;;19.88;12.00;;;2.80;99.90;;;;;;5038893;28;20049;-81
2021/01/23 07:19:02;;;;;;;21.33;12.35;;;2.90;99.90;;;;;;5039413;28;20160;-80
2021/01/23 07:21:31;;;;;;;18.98;12.18;;;2.90;99.90;;;;;;5041376;28;20172;-80
2021/01/23 07:23:58;;;;;;;20.83;12.30;;;3.00;99.90;;;;;;5044916;28;20071;-82
2021/01/23 07:26:25;;;;;;;20.98;12.23;;;3.00;99.90;;;;;;5044045;28;20113;-80
2021/01/23 07:28:53;;;;;;;17.92;11.82;;;3.00;99.90;;;;;;5044279;28;20112;-80
2021/01/23 07:31:24;;;;;;;22.55;12.23;;;3.10;99.90;;;;;;5044184;28;20152;-80
2021/01/23 07:33:53;;;;;;;24.42;11.40;;;3.10;99.90;;;;;;5044987;28;20119;-81
2021/01/23 07:36:34;;;;;;;21.55;12.60;;;3.10;99.90;;;;;;5044099;28;20131;-80
2021/01/23 07:39:01;;;;;;;21.25;12.25;;;3.20;99.90;;;;;;5044494;28;20154;-80
2021/01/23 07:41:32;;;;;;;17.92;10.88;;;3.30;99.90;;;;;;5045056;28;20436;-81
2021/01/23 07:44:00;;;;;;;19.35;11.55;;;3.30;99.90;;;;;;5044291;28;20048;-78
2021/01/23 07:46:36;;;;;;;19.00;11.80;;;3.40;99.90;;;;;;5043355;28;20053;-81
2021/01/23 07:49:05;;;;;;;21.88;12.07;;;3.50;99.90;;;;;;5044683;28;20100;-80
2021/01/23 07:51:33;;;;;;;18.15;11.23;;;3.60;99.90;;;;;;5044656;28;20072;-80
2021/01/23 07:54:08;;;;;;;16.08;10.60;;;3.50;99.90;;;;;;5043777;28;20049;-79
2021/01/23 07:56:34;;;;;;;24.70;15.77;;;3.60;99.90;;;;;;5042388;28;20049;-80
2021/01/23 07:59:04;;;;;;;20.70;10.70;;;3.70;99.90;;;;;;5042734;28;20146;-80
2021/01/23 08:01:30;;;;;;;21.48;11.82;;;3.60;99.90;;;;;;5042436;28;20088;-79
2021/01/23 08:03:57;;;;;;;21.73;10.95;;;3.60;99.90;;;;;;5041857;28;20107;-79
2021/01/23 08:06:25;;;;;;;16.33;10.00;;;3.60;99.90;;;;;;5040520;28;20141;-78
2021/01/23 08:08:52;;;;;;;17.85;10.52;;;3.60;99.90;;;;;;5041042;28;20081;-78
2021/01/23 08:11:38;;;;;;;17.55;10.07;;;3.60;99.90;;;;;;5041824;28;20056;-79
2021/01/23 08:14:13;;;;;;;20.23;10.48;;;3.70;99.90;;;;;;5041455;28;20068;-81
2021/01/23 08:16:56;;;;;;;18.45;9.88;;;3.70;99.90;;;;;;5041929;28;20199;-79
2021/01/23 08:19:23;;;;;;;15.55;9.77;;;3.80;99.90;;;;;;5052314;28;20069;-80
2021/01/23 08:22:06;;;;;;;16.00;10.20;;;3.90;99.90;;;;;;5053809;28;20079;-81
2021/01/23 08:24:32;;;;;;;;;;;4.10;99.90;;;;;;5052671;28;20046;-80
2021/01/23 08:27:15;;;;;;;13.77;9.32;;;4.20;99.90;;;;;;5041227;28;19960;-79
2021/01/23 08:29:44;;;;;;;15.73;9.52;;;4.20;99.90;;;;;;5040862;28;20088;-79
2021/01/23 08:32:10;;;;;;;18.33;9.90;;;4.30;99.90;;;;;;5038124;28;20470;-79
2021/01/23 08:34:37;;;;;;;13.15;8.85;;;4.30;99.90;;;;;;5036445;28;20136;-80
2021/01/23 08:37:04;;;;;;;16.08;9.63;;;4.30;99.90;;;;;;5035331;28;20136;-79
2021/01/23 08:39:41;;;;;;;18.05;9.68;;;4.20;99.90;;;;;;5036334;28;20053;-80
2021/01/23 08:42:07;;;;;;;21.23;10.68;;;4.20;99.90;;;;;;5036580;28;20077;-78
2021/01/23 08:44:34;;;;;;;15.65;10.65;;;4.10;99.90;;;;;;5035405;28;20084;-78
2021/01/23 08:47:02;;;;;;;16.90;10.45;;;4.20;99.90;;;;;;5036081;28;20085;-77
2021/01/23 08:49:29;;;;;;;16.27;10.23;;;4.10;99.90;;;;;;5037213;28;20045;-79
2021/01/23 08:51:56;;;;;;;16.60;10.60;;;4.10;99.90;;;;;;5037927;28;20077;-79
2021/01/23 08:54:23;;;;;;;18.27;10.98;;;4.10;99.90;;;;;;5037954;28;20089;-78
2021/01/23 08:56:50;;;;;;;16.55;10.63;;;4.10;99.90;;;;;;5036551;28;20053;-79
2021/01/23 08:59:16;;;;;;;15.95;10.65;;;4.10;99.90;;;;;;5036995;28;20620;-77
2021/01/23 09:01:43;;;;;;;15.95;10.27;;;4.10;99.90;;;;;;5041548;28;20055;-80
2021/01/23 09:04:09;;;;;;;20.65;11.48;;;4.00;99.90;;;;;;5043659;28;20045;-79
2021/01/23 09:06:36;;;;;;;17.42;10.52;;;4.00;99.90;;;;;;5049607;28;20085;-80
2021/01/23 09:09:03;;;;;;;20.00;11.07;;;4.00;99.90;;;;;;5049193;28;20065;-79
2021/01/23 09:11:30;;;;;;;16.25;10.05;;;3.90;99.90;;;;;;5042778;28;20156;-78
2021/01/23 09:13:57;;;;;;;17.55;10.93;;;4.00;99.90;;;;;;5041975;28;20122;-80
2021/01/23 09:16:23;;;;;;;17.00;11.70;;;4.00;99.90;;;;;;5044384;28;20056;-78
2021/01/23 09:18:50;;;;;;;17.25;11.65;;;4.00;99.90;;;;;;5039608;28;20050;-80
2021/01/23 09:21:16;;;;;;;21.10;12.45;;;3.90;99.90;;;;;;5039001;28;20049;-79
2021/01/23 09:23:42;;;;;;;17.85;11.25;;;3.90;99.90;;;;;;5039186;28;20085;-80
2021/01/23 09:26:09;;;;;;;17.90;11.25;;;4.00;99.90;;;;;;5039091;28;20077;-82
2021/01/23 09:28:36;;;;;;;16.60;11.20;;;4.10;99.90;;;;;;5040628;28;20053;-81
2021/01/23 09:31:02;;;;;;;16.67;11.10;;;4.20;99.90;;;;;;5039670;28;20100;-80
2021/01/23 09:33:29;;;;;;;17.67;11.02;;;4.30;99.90;;;;;;5039942;28;20556;-79
2021/01/23 09:35:58;;;;;;;20.75;12.63;;;4.40;99.90;;;;;;5042166;28;20053;-83
2021/01/23 09:38:24;;;;;;;20.60;11.18;;;4.50;99.90;;;;;;5039306;28;20103;-80
2021/01/23 09:40:50;;;;;;;19.42;11.10;;;4.50;99.90;;;;;;5039357;28;20109;-79
2021/01/23 09:43:17;;;;;;;19.92;11.10;;;4.60;99.90;;;;;;5039199;28;20077;-79
2021/01/23 09:45:44;;;;;;;18.20;11.40;;;4.70;99.90;;;;;;5038955;28;20049;-80
2021/01/23 09:48:11;;;;;;;18.48;11.25;;;4.80;99.90;;;;;;5039868;28;20071;-80
2021/01/23 09:50:37;;;;;;;18.30;12.10;;;4.80;99.90;;;;;;5038986;28;20474;-80
2021/01/23 09:53:04;;;;;;;20.73;11.93;;;4.90;99.90;;;;;;5039124;28;20081;-81
2021/01/23 09:55:30;;;;;;;24.38;11.77;;;5.00;99.90;;;;;;5038527;28;20141;-81
2021/01/23 09:57:57;;;;;;;18.30;12.15;;;5.00;99.90;;;;;;5038953;28;20456;-83
2021/01/23 10:00:23;;;;;;;17.55;12.10;;;5.10;99.90;;;;;;5039307;28;20108;-81
2021/01/23 10:02:51;;;;;;;18.50;11.30;;;5.10;99.90;;;;;;5038671;28;20091;-79
2021/01/23 10:05:17;;;;;;;19.25;12.68;;;5.20;99.90;;;;;;5036206;28;20536;-79
2021/01/23 10:07:44;;;;;;;19.00;12.10;;;5.20;99.90;;;;;;5038508;28;20183;-81
2021/01/23 10:10:10;;;;;;;20.23;12.13;;;5.20;99.90;;;;;;5037932;28;20076;-79
2021/01/23 10:12:37;;;;;;;18.58;11.10;;;5.30;99.90;;;;;;5038469;28;20497;-80
2021/01/23 10:15:04;;;;;;;16.80;11.23;;;5.30;99.90;;;;;;5039726;28;20528;-80
2021/01/23 10:17:31;;;;;;;16.73;11.18;;;5.40;99.90;;;;;;5038581;28;20072;-81
2021/01/23 10:19:58;;;;;;;16.70;10.93;;;5.50;99.90;;;;;;5038081;28;20053;-81
2021/01/23 10:22:24;;;;;;;15.98;11.23;;;5.60;99.90;;;;;;5038190;28;20496;-81
2021/01/23 10:24:51;;;;;;;16.30;10.63;;;5.70;99.90;;;;;;5037385;28;20081;-80
2021/01/23 10:27:17;;;;;;;15.95;9.95;;;5.70;99.90;;;;;;5037021;28;20128;-79
2021/01/23 10:29:44;;;;;;;15.23;9.55;;;5.70;99.90;;;;;;5036201;28;20076;-79
2021/01/23 10:32:10;;;;;;;14.25;9.75;;;5.80;99.90;;;;;;5037364;28;20468;-80
2021/01/23 10:34:37;;;;;;;13.80;10.05;;;5.90;99.90;;;;;;5037620;28;20081;-82
2021/01/23 10:37:05;;;;;;;13.20;9.15;;;6.00;99.90;;;;;;5037666;28;20111;-79
2021/01/23 10:39:31;;;;;;;15.85;9.60;;;6.10;99.90;;;;;;5036706;28;20081;-81
2021/01/23 10:41:57;;;;;;;16.10;9.35;;;6.20;99.90;;;;;;5035944;28;20092;-81
2021/01/23 10:44:24;;;;;;;13.82;9.25;;;6.30;99.90;;;;;;5037664;28;20081;-79
2021/01/23 10:46:51;;;;;;;14.25;9.27;;;6.30;99.90;;;;;;5040128;28;20049;-81
2021/01/23 10:49:17;;;;;;;13.13;9.05;;;6.30;99.90;;;;;;5039909;28;20077;-81
2021/01/23 10:51:43;;;;;;;13.82;9.18;;;6.40;99.90;;;;;;5037406;28;20088;-82
2021/01/23 10:54:11;;;;;;;12.68;9.00;;;6.40;99.90;;;;;;5037677;28;20096;-79
2021/01/23 10:56:37;;;;;;;13.73;7.85;;;6.40;99.90;;;;;;5036829;28;20109;-80
2021/01/23 10:59:04;;;;;;;11.63;8.10;;;6.50;99.90;;;;;;5037983;28;20085;-81
2021/01/23 11:01:30;;;;;;;9.85;7.50;;;6.50;99.90;;;;;;5039037;28;20084;-84
2021/01/23 11:03:57;;;;;;;10.05;6.68;;;6.60;99.90;;;;;;5040678;28;20045;-82
2021/01/23 11:06:24;;;;;;;21.75;9.25;;;6.60;99.90;;;;;;5039169;28;20085;-80
2021/01/23 11:08:51;;;;;;;23.83;7.13;;;6.70;99.90;;;;;;5039403;28;20088;-83
2021/01/23 11:11:18;;;;;;;10.85;7.35;;;6.80;99.90;;;;;;5039634;28;20509;-81
2021/01/23 11:13:58;;;;;;;7.60;5.88;;;6.80;99.90;;;;;;5085594;22;20080;-80
2021/01/23 11:16:32;;;;;;;10.00;5.75;;;6.90;99.90;;;;;;5058795;28;20045;-81
2021/01/23 11:19:09;;;;;;;7.50;5.40;;;6.90;99.90;;;;;;5058987;28;20052;-80
2021/01/23 11:21:51;;;;;;;8.52;5.53;;;6.90;99.90;;;;;;5058704;28;20049;-82
2021/01/23 11:24:20;;;;;;;8.65;6.30;;;7.20;99.90;;;;;;5058728;28;20509;-83
2021/01/23 11:29:46;;;;;;;11.55;5.38;;;7.20;99.90;;;;;;5072356;22;20224;-80
2021/01/23 11:32:12;;;;;;;17.65;5.45;;;7.30;99.90;;;;;;5058025;28;20053;-81
2021/01/23 11:34:38;;;;;;;9.57;6.35;;;7.30;99.90;;;;;;5061005;28;20079;-82
2021/01/23 11:37:05;;;;;;;10.25;5.90;;;7.30;99.90;;;;;;5059826;28;20072;-81
2021/01/23 11:39:31;;;;;;;9.10;5.53;;;7.30;99.90;;;;;;5060548;28;20072;-81
2021/01/23 11:41:59;;;;;;;10.13;6.15;;;7.40;99.90;;;;;;5060483;28;20057;-81
2021/01/23 11:44:25;;;;;;;7.15;4.55;;;7.40;99.90;;;;;;5059466;28;20088;-80
2021/01/23 11:46:51;;;;;;;10.73;5.03;;;7.40;99.90;;;;;;5059839;28;20107;-80
2021/01/23 11:49:18;;;;;;;6.15;3.70;;;7.40;99.90;;;;;;5059829;28;20088;-80
2021/01/23 11:51:45;;;;;;;7.35;4.95;;;7.40;99.90;;;;;;5058745;28;20081;-80
2021/01/23 11:54:12;;;;;;;8.25;3.90;;;7.40;99.90;;;;;;5056321;28;20202;-79
2021/01/23 11:56:38;;;;;;;5.72;3.67;;;7.60;99.90;;;;;;5030859;28;20041;-80
2021/01/23 11:59:05;;;;;;;20.27;5.35;;;7.60;99.90;;;;;;5027052;28;20101;-80
2021/01/23 12:01:34;;;;;;;16.83;5.53;;;7.70;99.90;;;;;;5029033;28;20533;-79
2021/01/23 12:04:03;;;;;;;8.18;4.20;;;7.80;99.90;;;;;;5027430;28;20113;-79
2021/01/23 12:06:32;;;;;;;28.35;6.07;;;7.70;99.90;;;;;;5025093;28;20474;-79
2021/01/23 12:08:58;;;;;;;6.95;4.38;;;7.80;99.90;;;;;;5025713;28;20132;-80
2021/01/23 12:11:25;;;;;;;7.45;3.83;;;7.80;99.90;;;;;;5029555;28;20054;-79
2021/01/23 12:13:51;;;;;;;7.53;3.63;;;7.90;99.90;;;;;;5028407;28;20050;-80
2021/01/23 12:16:18;;;;;;;8.88;3.78;;;8.00;99.90;;;;;;5028633;28;20077;-80
2021/01/23 12:18:45;;;;;;;8.50;3.30;;;8.00;99.90;;;;;;5030994;28;20548;-80
2021/01/23 12:21:11;;;;;;;4.53;3.45;;;8.10;99.90;;;;;;5029930;28;20529;-80
2021/01/23 12:23:38;;;;;;;6.60;3.53;;;8.10;99.90;;;;;;5032181;28;20177;-80
2021/01/23 12:26:04;;;;;;;7.55;3.55;;;8.10;99.90;;;;;;5033375;28;20069;-80
2021/01/23 12:28:30;;;;;;;8.73;3.45;;;8.10;99.90;;;;;;5038598;28;20053;-80
2021/01/23 12:30:57;;;;;;;7.55;3.20;;;8.20;99.90;;;;;;5032280;28;20518;-81
2021/01/23 12:33:24;;;;;;;6.50;3.85;;;8.20;99.90;;;;;;5029839;28;20104;-83
2021/01/23 12:35:51;;;;;;;8.35;3.40;;;8.20;99.90;;;;;;5033463;28;20077;-84
2021/01/23 12:38:17;;;;;;;5.65;3.40;;;8.20;99.90;;;;;;5031980;28;20140;-83
2021/01/23 12:40:47;;;;;;;7.30;3.70;;;8.10;99.90;;;;;;5036219;28;20124;-84
2021/01/23 12:43:26;;;;;;;6.85;3.08;;;8.10;99.90;;;;;;5029097;28;20050;-84
2021/01/23 12:46:18;;;;;;;4.32;3.15;;;8.10;99.90;;;;;;5018726;28;20378;-83
2021/01/23 12:48:45;;;;;;;5.18;2.88;;;8.00;99.90;;;;;;5032811;28;20050;-81
2021/01/23 12:51:11;;;;;;;5.82;3.20;;;8.20;99.90;;;;;;5028549;28;20073;-80
2021/01/23 12:53:38;;;;;;;7.07;3.28;;;8.20;99.90;;;;;;5025022;28;20054;-82